createdAt,value
2023-02-24T00:02:04.259Z,9.20
2023-02-24T00:04:38.576Z,9.18
2023-02-24T00:07:06.185Z,9.16
2023-02-24T00:09:33.408Z,9.18
2023-02-24T00:12:02.953Z,9.16
2023-02-24T00:14:31.427Z,9.12
2023-02-24T00:16:58.646Z,9.18
2023-02-24T00:19:27.074Z,9.19
2023-02-24T00:21:56.346Z,9.17
2023-02-24T00:24:23.150Z,9.17
2023-02-24T00:26:54.492Z,9.21
2023-02-24T00:29:24.266Z,9.17
2023-02-24T00:31:59.248Z,9.15
2023-02-24T00:34:30.959Z,9.14
2023-02-24T00:36:58.258Z,9.13
2023-02-24T00:39:33.402Z,9.13
2023-02-24T00:42:05.909Z,9.11
2023-02-24T00:44:34.136Z,9.08
2023-02-24T00:47:02.309Z,9.01
2023-02-24T00:49:29.286Z,8.76
2023-02-24T00:51:56.858Z,8.64
2023-02-24T00:54:27.476Z,8.66
2023-02-24T00:56:54.799Z,8.67
2023-02-24T00:59:23.792Z,8.53
2023-02-24T01:01:50.979Z,8.51
2023-02-24T01:04:19.061Z,8.37
2023-02-24T01:06:48.961Z,8.38
2023-02-24T01:09:19.119Z,8.33
2023-02-24T01:12:22.683Z,8.16
2023-02-24T01:14:51.488Z,8.00
2023-02-24T01:17:18.824Z,7.97
2023-02-24T01:19:45.994Z,7.70
2023-02-24T01:22:15.037Z,7.68
2023-02-24T01:24:43.281Z,7.39
2023-02-24T01:27:11.598Z,7.52
2023-02-24T01:29:39.906Z,7.36
2023-02-24T01:32:14.071Z,7.42
2023-02-24T01:34:42.627Z,7.46
2023-02-24T01:37:09.937Z,7.53
2023-02-24T01:39:36.526Z,7.48
2023-02-24T01:42:04.857Z,7.47
2023-02-24T01:44:33.217Z,7.48
2023-02-24T01:47:03.926Z,7.41
2023-02-24T01:49:37.661Z,7.29
2023-02-24T01:52:12.732Z,7.18
2023-02-24T01:54:47.326Z,7.15
2023-02-24T01:57:17.209Z,7.04
2023-02-24T01:59:48.536Z,7.10
2023-02-24T02:02:15.672Z,7.06
2023-02-24T02:04:48.119Z,7.10
2023-02-24T02:07:17.719Z,6.99
2023-02-24T02:09:46.940Z,6.95
2023-02-24T02:12:13.614Z,6.80
2023-02-24T02:14:43.401Z,6.95
2023-02-24T02:17:09.756Z,6.97
2023-02-24T02:20:01.244Z,6.90
2023-02-24T02:22:46.069Z,6.90
2023-02-24T02:25:40.943Z,6.76
2023-02-24T02:28:32.172Z,6.79
2023-02-24T02:31:12.836Z,6.70
2023-02-24T02:34:02.835Z,6.59
2023-02-24T02:37:08.513Z,6.58
2023-02-24T02:39:39.906Z,6.23
2023-02-24T02:42:35.953Z,6.06
2023-02-24T02:45:18.226Z,6.07
2023-02-24T02:47:54.886Z,6.21
2023-02-24T02:50:28.595Z,6.25
2023-02-24T02:53:00.988Z,6.07
2023-02-24T02:55:36.248Z,6.12
2023-02-24T02:58:04.854Z,6.19
2023-02-24T03:00:37.237Z,6.20
2023-02-24T03:03:12.632Z,6.24
2023-02-24T03:05:46.974Z,6.28
2023-02-24T03:08:18.211Z,6.21
2023-02-24T03:10:45.393Z,6.19
2023-02-24T03:13:13.364Z,6.13
2023-02-24T03:15:42.500Z,6.10
2023-02-24T03:18:14.974Z,6.15
2023-02-24T03:20:46.837Z,6.19
2023-02-24T03:23:21.830Z,6.16
2023-02-24T03:25:59.011Z,6.19
2023-02-24T03:28:35.558Z,6.17
2023-02-24T03:31:10.976Z,6.07
2023-02-24T03:33:46.745Z,6.10
2023-02-24T03:36:15.113Z,6.10
2023-02-24T03:38:42.901Z,6.11
2023-02-24T03:41:12.076Z,6.15
2023-02-24T03:43:44.905Z,6.19
2023-02-24T03:46:11.846Z,6.20
2023-02-24T03:48:44.474Z,6.20
2023-02-24T03:51:23.309Z,6.21
2023-02-24T03:54:02.729Z,6.23
2023-02-24T03:56:47.247Z,6.20
2023-02-24T03:59:57.398Z,6.09
2023-02-24T04:02:28.734Z,6.12
2023-02-24T04:05:13.737Z,6.09
2023-02-24T04:08:01.276Z,6.19
2023-02-24T04:10:33.647Z,6.15
2023-02-24T04:13:25.061Z,6.10
2023-02-24T04:15:58.944Z,6.10
2023-02-24T04:18:29.242Z,6.08
2023-02-24T04:20:59.774Z,6.10
2023-02-24T04:23:30.199Z,6.12
2023-02-24T04:25:57.021Z,6.14
2023-02-24T04:28:25.797Z,6.11
2023-02-24T04:30:57.307Z,6.15
2023-02-24T04:33:24.208Z,6.16
2023-02-24T04:35:53.341Z,6.09
2023-02-24T04:38:20.862Z,6.13
2023-02-24T04:40:49.837Z,6.03
2023-02-24T04:43:17.146Z,6.06
2023-02-24T04:45:44.295Z,6.08
2023-02-24T04:48:14.288Z,6.14
2023-02-24T04:50:43.438Z,6.18
2023-02-24T04:53:15.363Z,6.21
2023-02-24T04:55:50.768Z,6.21
2023-02-24T04:58:22.170Z,6.16
2023-02-24T05:00:52.819Z,6.14
2023-02-24T05:03:21.247Z,6.06
2023-02-24T05:05:52.552Z,6.10
2023-02-24T05:08:19.852Z,6.14
2023-02-24T05:10:47.257Z,6.09
2023-02-24T05:13:15.905Z,6.11
2023-02-24T05:15:44.659Z,6.14
2023-02-24T05:18:14.747Z,6.14
2023-02-24T05:21:02.162Z,6.18
2023-02-24T05:23:34.234Z,6.19
2023-02-24T05:26:02.323Z,6.19
2023-02-24T05:28:32.995Z,6.19
2023-02-24T05:31:11.095Z,6.17
2023-02-24T05:33:38.647Z,6.17
2023-02-24T05:36:08.501Z,6.18
2023-02-24T05:38:38.064Z,6.09
2023-02-24T05:41:15.084Z,6.12
2023-02-24T05:43:41.798Z,6.09
2023-02-24T05:46:08.307Z,6.09
2023-02-24T05:48:37.691Z,6.06
2023-02-24T05:51:08.004Z,6.05
2023-02-24T05:53:35.316Z,6.08
2023-02-24T05:56:02.124Z,6.09
2023-02-24T05:58:32.495Z,6.11
2023-02-24T06:01:05.948Z,6.12
2023-02-24T06:03:35.731Z,6.12
2023-02-24T06:06:09.122Z,6.10
2023-02-24T06:08:42.455Z,6.05
2023-02-24T06:11:12.819Z,6.02
2023-02-24T06:13:39.326Z,6.05
2023-02-24T06:16:06.995Z,6.06
2023-02-24T06:18:34.041Z,6.04
2023-02-24T06:21:03.752Z,6.07
2023-02-24T06:23:30.223Z,5.99
2023-02-24T06:26:01.890Z,6.04
2023-02-24T06:28:28.548Z,6.06
2023-02-24T06:30:56.186Z,5.97
2023-02-24T06:33:26.296Z,6.00
2023-02-24T06:35:53.399Z,6.04
2023-02-24T06:38:19.940Z,6.05
2023-02-24T06:40:47.516Z,6.11
2023-02-24T06:43:14.023Z,6.14
2023-02-24T06:45:40.926Z,6.12
2023-02-24T06:48:09.086Z,6.09
2023-02-24T06:50:35.697Z,6.11
2023-02-24T06:53:02.715Z,6.17
2023-02-24T06:55:29.343Z,6.19
2023-02-24T06:57:58.472Z,6.22
2023-02-24T07:00:37.046Z,6.23
2023-02-24T07:03:14.982Z,6.25
2023-02-24T07:06:11.197Z,6.24
2023-02-24T07:08:38.348Z,6.25
2023-02-24T07:11:06.438Z,6.30
2023-02-24T07:13:34.170Z,6.34
2023-02-24T07:16:06.825Z,6.31
2023-02-24T07:18:35.996Z,6.31
2023-02-24T07:21:11.427Z,6.32
2023-02-24T07:23:41.721Z,6.35
2023-02-24T07:26:14.021Z,6.37
2023-02-24T07:28:42.051Z,6.37
2023-02-24T07:31:13.986Z,6.29
2023-02-24T07:33:45.526Z,6.32
2023-02-24T07:36:15.089Z,6.37
2023-02-24T07:38:42.768Z,6.35
2023-02-24T07:41:10.829Z,6.34
2023-02-24T07:43:38.329Z,6.35
2023-02-24T07:46:09.575Z,6.36
2023-02-24T07:48:39.521Z,6.33
2023-02-24T07:51:16.979Z,6.36
2023-02-24T07:53:43.896Z,6.31
2023-02-24T07:56:14.442Z,6.33
2023-02-24T07:58:42.403Z,6.40
2023-02-24T08:01:17.742Z,6.52
2023-02-24T08:03:44.779Z,6.50
2023-02-24T08:06:26.598Z,6.54
2023-02-24T08:08:58.863Z,6.55
2023-02-24T08:11:35.518Z,6.55
2023-02-24T08:14:13.889Z,6.59
2023-02-24T08:16:45.430Z,6.64
2023-02-24T08:19:14.912Z,6.70
2023-02-24T08:21:47.272Z,6.70
2023-02-24T08:24:18.361Z,6.68
2023-02-24T08:26:45.533Z,6.61
2023-02-24T08:29:12.934Z,6.54
2023-02-24T08:31:39.642Z,6.53
2023-02-24T08:34:06.239Z,6.61
2023-02-24T08:36:32.768Z,6.73
2023-02-24T08:38:59.834Z,6.82
2023-02-24T08:41:44.907Z,6.87
2023-02-24T08:44:12.905Z,6.93
2023-02-24T08:46:40.345Z,7.02
2023-02-24T08:49:10.875Z,7.04
2023-02-24T08:51:43.753Z,6.91
2023-02-24T08:54:27.139Z,7.14
2023-02-24T08:57:08.235Z,7.22
2023-02-24T08:59:41.035Z,7.05
2023-02-24T09:02:18.775Z,7.20
2023-02-24T09:04:46.939Z,7.27
2023-02-24T09:07:25.212Z,7.33
2023-02-24T09:09:56.349Z,7.40
2023-02-24T09:12:25.223Z,7.36
2023-02-24T09:14:57.737Z,7.29
2023-02-24T09:17:46.651Z,7.33
2023-02-24T09:20:28.156Z,7.37
2023-02-24T09:23:07.353Z,7.32
2023-02-24T09:25:49.605Z,7.38
2023-02-24T09:28:18.412Z,7.42
2023-02-24T09:30:51.424Z,7.36
2023-02-24T09:33:20.844Z,7.27
2023-02-24T09:36:03.363Z,7.22
2023-02-24T09:38:49.140Z,7.28
2023-02-24T09:41:34.064Z,7.28
2023-02-24T09:44:07.708Z,7.34
2023-02-24T09:47:08.951Z,7.35
2023-02-24T09:50:00.930Z,7.25
2023-02-24T09:52:42.187Z,7.25
2023-02-24T09:55:25.336Z,7.24
2023-02-24T09:58:18.708Z,7.22
2023-02-24T10:01:00.410Z,7.17
2023-02-24T10:03:48.065Z,7.30
2023-02-24T10:06:24.248Z,7.37
2023-02-24T10:08:55.166Z,7.39
2023-02-24T10:11:32.885Z,7.50
2023-02-24T10:14:05.308Z,7.48
2023-02-24T10:16:44.434Z,7.67
2023-02-24T10:19:16.790Z,7.71
2023-02-24T10:22:27.731Z,7.92
2023-02-24T10:25:21.305Z,7.93
2023-02-24T10:28:12.332Z,7.62
2023-02-24T10:31:10.426Z,7.88
2023-02-24T10:33:45.161Z,7.89
2023-02-24T10:36:17.307Z,7.92
2023-02-24T10:38:50.765Z,8.03
2023-02-24T10:41:17.550Z,8.03
2023-02-24T10:43:56.211Z,8.08
2023-02-24T10:46:41.110Z,8.12
2023-02-24T10:49:10.046Z,7.96
2023-02-24T10:51:39.140Z,8.07
2023-02-24T10:54:22.748Z,8.08
2023-02-24T10:57:00.616Z,8.01
2023-02-24T10:59:58.480Z,7.94
2023-02-24T11:02:30.187Z,7.90
2023-02-24T11:04:59.677Z,7.83
2023-02-24T11:07:33.672Z,7.77
2023-02-24T11:10:26.098Z,7.70
2023-02-24T11:13:15.077Z,7.52
2023-02-24T11:16:19.105Z,7.11
2023-02-24T11:18:52.680Z,6.97
2023-02-24T11:21:19.763Z,6.65
2023-02-24T11:23:49.616Z,6.65
2023-02-24T11:26:35.343Z,6.70
2023-02-24T11:29:42.364Z,6.53
2023-02-24T11:32:30.256Z,6.41
2023-02-24T11:35:12.656Z,6.28
2023-02-24T11:37:43.675Z,6.14
2023-02-24T11:40:10.190Z,6.14
2023-02-24T11:42:43.701Z,6.08
2023-02-24T11:45:25.516Z,5.92
2023-02-24T11:48:19.650Z,5.63
2023-02-24T11:50:54.096Z,5.53
2023-02-24T11:53:37.153Z,5.48
2023-02-24T11:56:27.165Z,5.39
2023-02-24T11:59:12.463Z,5.34
2023-02-24T12:01:50.799Z,5.20
2023-02-24T12:04:24.389Z,5.25
2023-02-24T12:07:09.763Z,5.19
2023-02-24T12:09:53.721Z,5.02
2023-02-24T12:12:42.556Z,5.18
2023-02-24T12:15:34.052Z,5.00
2023-02-24T12:18:31.399Z,5.01
2023-02-24T12:21:01.059Z,5.10
2023-02-24T12:23:30.469Z,5.07
2023-02-24T12:26:19.930Z,5.01
2023-02-24T12:29:09.403Z,4.81
2023-02-24T12:31:53.602Z,4.85
2023-02-24T12:34:53.854Z,4.75
2023-02-24T12:37:39.496Z,4.68
2023-02-24T12:40:32.522Z,4.42
2023-02-24T12:43:29.819Z,4.61
2023-02-24T12:46:14.033Z,4.56
2023-02-24T12:49:17.863Z,4.48
2023-02-24T12:52:20.777Z,4.57
2023-02-24T12:54:55.214Z,4.49
2023-02-24T12:57:28.553Z,4.45
2023-02-24T12:59:58.005Z,4.40
2023-02-24T13:02:53.010Z,4.27
2023-02-24T13:05:33.531Z,4.43
2023-02-24T13:08:11.406Z,4.42
2023-02-24T13:10:45.944Z,4.46
2023-02-24T13:13:34.611Z,4.36
2023-02-24T13:16:01.119Z,4.23
2023-02-24T13:18:31.120Z,4.32
2023-02-24T13:21:22.422Z,4.29
2023-02-24T13:24:00.887Z,4.33
2023-02-24T13:26:30.498Z,4.20
2023-02-24T13:29:02.654Z,4.35
2023-02-24T13:31:41.565Z,4.26
2023-02-24T13:34:44.341Z,4.32
2023-02-24T13:37:11.503Z,4.21
2023-02-24T13:39:41.425Z,4.18
2023-02-24T13:42:20.073Z,4.23
2023-02-24T13:45:03.029Z,4.25
2023-02-24T13:48:29.409Z,4.22
2023-02-24T13:51:02.226Z,4.18
2023-02-24T13:54:06.102Z,4.28
2023-02-24T13:56:48.807Z,4.31
2023-02-24T13:59:42.990Z,4.11
2023-02-24T14:02:15.708Z,4.24
2023-02-24T14:04:52.753Z,4.29
2023-02-24T14:07:22.760Z,4.32
2023-02-24T14:09:53.529Z,4.32
2023-02-24T14:12:23.950Z,4.40
2023-02-24T14:14:51.111Z,4.40
2023-02-24T14:17:28.855Z,4.42
2023-02-24T14:20:07.407Z,4.39
2023-02-24T14:22:34.720Z,4.51
2023-02-24T14:25:02.648Z,4.48
2023-02-24T14:27:29.245Z,4.46
2023-02-24T14:29:55.950Z,4.40
2023-02-24T14:32:24.699Z,4.26
2023-02-24T14:34:52.626Z,4.39
2023-02-24T14:37:24.658Z,4.37
2023-02-24T14:39:53.862Z,4.51
2023-02-24T14:42:21.038Z,4.44
2023-02-24T14:44:52.953Z,4.59
2023-02-24T14:47:21.832Z,4.65
2023-02-24T14:49:53.624Z,4.65
2023-02-24T14:52:37.421Z,4.71
2023-02-24T14:55:16.606Z,4.58
2023-02-24T14:57:49.965Z,4.61
2023-02-24T15:00:24.033Z,4.62
2023-02-24T15:02:58.573Z,4.63
2023-02-24T15:05:25.094Z,4.65
2023-02-24T15:07:52.037Z,4.53
2023-02-24T15:10:24.542Z,4.52
2023-02-24T15:12:58.249Z,4.56
2023-02-24T15:15:28.988Z,4.57
2023-02-24T15:17:58.559Z,4.48
2023-02-24T15:20:25.349Z,4.45
2023-02-24T15:22:51.989Z,4.45
2023-02-24T15:25:33.723Z,4.44
2023-02-24T15:28:07.696Z,4.33
2023-02-24T15:30:36.362Z,4.34
2023-02-24T15:33:05.447Z,4.37
2023-02-24T15:35:33.600Z,4.33
2023-02-24T15:38:01.010Z,4.27
2023-02-24T15:40:28.881Z,4.32
2023-02-24T15:43:00.247Z,4.37
2023-02-24T15:45:35.513Z,4.11
2023-02-24T15:48:20.086Z,4.16
2023-02-24T15:50:46.914Z,4.23
2023-02-24T15:53:13.485Z,4.24
2023-02-24T15:55:43.722Z,4.22
2023-02-24T15:58:18.709Z,4.13
2023-02-24T16:00:45.417Z,4.25
2023-02-24T16:03:12.601Z,4.27
2023-02-24T16:05:39.145Z,4.28
2023-02-24T16:08:05.772Z,4.33
2023-02-24T16:10:32.366Z,4.43
2023-02-24T16:13:00.478Z,4.35
2023-02-24T16:15:29.398Z,4.50
2023-02-24T16:17:56.468Z,4.50
2023-02-24T16:20:27.579Z,4.48
2023-02-24T16:22:56.189Z,4.57
2023-02-24T16:25:23.188Z,4.60
2023-02-24T16:27:49.980Z,4.63
2023-02-24T16:30:22.476Z,4.72
2023-02-24T16:32:49.759Z,4.69
2023-02-24T16:35:16.460Z,4.55
2023-02-24T16:37:46.080Z,4.66
2023-02-24T16:40:23.235Z,4.75
2023-02-24T16:42:51.620Z,4.81
2023-02-24T16:45:19.519Z,4.82
2023-02-24T16:47:48.671Z,4.80
2023-02-24T16:50:24.269Z,4.80
2023-02-24T16:52:50.802Z,4.80
2023-02-24T16:55:18.246Z,4.78
2023-02-24T16:57:44.718Z,4.76
2023-02-24T17:00:13.415Z,4.73
2023-02-24T17:02:42.538Z,4.83
2023-02-24T17:05:16.139Z,4.81
2023-02-24T17:07:42.735Z,4.86
2023-02-24T17:10:09.613Z,4.94
2023-02-24T17:12:36.176Z,4.92
2023-02-24T17:15:02.692Z,4.81
2023-02-24T17:17:29.242Z,4.73
2023-02-24T17:19:55.767Z,4.78
2023-02-24T17:22:22.660Z,4.80
2023-02-24T17:24:49.163Z,4.78
2023-02-24T17:27:15.684Z,4.94
2023-02-24T17:29:42.229Z,5.01
2023-02-24T17:32:09.178Z,5.07
2023-02-24T17:34:35.962Z,4.98
2023-02-24T17:37:02.946Z,5.02
2023-02-24T17:39:29.487Z,5.06
2023-02-24T17:41:55.957Z,5.09
2023-02-24T17:44:22.621Z,5.10
2023-02-24T17:46:49.300Z,5.09
2023-02-24T17:49:15.851Z,5.04
2023-02-24T17:51:42.316Z,5.06
2023-02-24T17:54:08.851Z,5.12
2023-02-24T17:56:35.333Z,5.20
2023-02-24T17:59:01.858Z,5.22
2023-02-24T18:01:28.682Z,5.27
2023-02-24T18:03:57.401Z,5.27
2023-02-24T18:06:24.711Z,5.30
2023-02-24T18:08:51.402Z,5.23
2023-02-24T18:11:18.704Z,5.30
2023-02-24T18:13:45.420Z,5.33
2023-02-24T18:16:13.740Z,5.18
2023-02-24T18:18:40.655Z,5.28
2023-02-24T18:21:08.552Z,5.29
2023-02-24T18:23:36.526Z,5.33
2023-02-24T18:26:04.156Z,5.29
2023-02-24T18:28:31.590Z,5.24
2023-02-24T18:30:58.708Z,5.26
2023-02-24T18:33:25.392Z,5.23
2023-02-24T18:36:01.458Z,5.22
2023-02-24T18:38:28.941Z,5.33
2023-02-24T18:41:04.701Z,5.23
2023-02-24T18:43:32.053Z,5.20
2023-02-24T18:46:03.999Z,5.20
2023-02-24T18:48:32.219Z,5.28
2023-02-24T18:50:58.868Z,5.26
2023-02-24T18:53:28.230Z,5.34
2023-02-24T18:56:02.397Z,5.22
2023-02-24T18:58:29.741Z,5.29
2023-02-24T19:00:56.248Z,5.36
2023-02-24T19:03:22.962Z,5.29
2023-02-24T19:05:50.141Z,5.35
2023-02-24T19:08:16.778Z,5.44
2023-02-24T19:10:43.689Z,5.50
2023-02-24T19:13:11.305Z,5.49
2023-02-24T19:15:38.644Z,5.59
2023-02-24T19:18:05.566Z,5.62
2023-02-24T19:20:32.285Z,5.63
2023-02-24T19:22:58.821Z,5.55
2023-02-24T19:25:25.399Z,5.67
2023-02-24T19:27:53.388Z,5.67
2023-02-24T19:30:19.934Z,5.71
2023-02-24T19:32:46.647Z,5.68
2023-02-24T19:35:13.696Z,5.62
2023-02-24T19:37:40.205Z,5.70
2023-02-24T19:40:07.049Z,5.63
2023-02-24T19:42:33.553Z,5.69
2023-02-24T19:45:00.121Z,5.74
2023-02-24T19:47:26.629Z,5.74
2023-02-24T19:49:53.292Z,5.72
2023-02-24T19:52:19.768Z,5.77
2023-02-24T19:54:46.338Z,5.71
2023-02-24T19:57:12.928Z,5.74
2023-02-24T19:59:39.661Z,5.78
2023-02-24T20:02:06.200Z,5.80
2023-02-24T20:04:32.821Z,5.88
2023-02-24T20:06:59.348Z,5.69
2023-02-24T20:09:27.019Z,5.59
2023-02-24T20:11:54.745Z,5.73
2023-02-24T20:14:21.334Z,5.77
2023-02-24T20:16:47.896Z,5.69
2023-02-24T20:19:15.466Z,5.67
2023-02-24T20:21:42.243Z,5.69
2023-02-24T20:24:13.408Z,5.72
2023-02-24T20:26:42.109Z,5.70
2023-02-24T20:29:09.505Z,5.68
2023-02-24T20:31:36.179Z,5.68
2023-02-24T20:34:04.473Z,5.63
2023-02-24T20:36:30.976Z,5.63
2023-02-24T20:38:58.758Z,5.65
2023-02-24T20:41:26.538Z,5.67
2023-02-24T20:43:53.284Z,5.66
2023-02-24T20:46:24.261Z,5.72
2023-02-24T20:48:52.216Z,5.72
2023-02-24T20:51:18.860Z,5.75
2023-02-24T20:53:56.626Z,5.66
2023-02-24T20:56:26.046Z,5.79
2023-02-24T20:58:57.211Z,5.81
2023-02-24T21:01:23.781Z,5.88
2023-02-24T21:03:50.663Z,5.85
2023-02-24T21:06:17.996Z,5.89
2023-02-24T21:08:44.831Z,5.92
2023-02-24T21:11:12.422Z,5.93
2023-02-24T21:13:43.348Z,5.93
2023-02-24T21:16:10.959Z,5.97
2023-02-24T21:18:40.036Z,5.87
2023-02-24T21:21:07.159Z,5.88
2023-02-24T21:23:34.031Z,5.92
2023-02-24T21:26:00.524Z,5.99
2023-02-24T21:28:27.010Z,6.04
2023-02-24T21:30:53.613Z,6.01
2023-02-24T21:33:20.121Z,5.97
2023-02-24T21:35:57.113Z,5.96
2023-02-24T21:38:23.602Z,5.95
2023-02-24T21:40:50.159Z,5.98
2023-02-24T21:43:17.776Z,6.02
2023-02-24T21:45:45.468Z,5.92
2023-02-24T21:48:11.948Z,5.95
2023-02-24T21:50:38.437Z,5.97
2023-02-24T21:53:06.096Z,6.00
2023-02-24T21:55:34.028Z,5.84
2023-02-24T21:58:00.716Z,5.89
2023-02-24T22:00:28.538Z,5.98
2023-02-24T22:03:06.428Z,6.02
2023-02-24T22:05:34.030Z,6.06
2023-02-24T22:08:03.786Z,6.12
2023-02-24T22:10:31.457Z,6.11
2023-02-24T22:12:58.105Z,6.10
2023-02-24T22:15:24.588Z,6.13
2023-02-24T22:17:51.100Z,6.18
2023-02-24T22:20:17.813Z,6.13
2023-02-24T22:22:44.463Z,6.15
2023-02-24T22:25:11.291Z,6.14
2023-02-24T22:27:37.936Z,6.14
2023-02-24T22:30:05.615Z,6.24
2023-02-24T22:32:32.497Z,6.26
2023-02-24T22:34:59.073Z,6.25
2023-02-24T22:37:25.605Z,6.26
2023-02-24T22:39:52.186Z,6.20
2023-02-24T22:42:18.740Z,6.26
2023-02-24T22:44:45.311Z,6.28
2023-02-24T22:47:11.837Z,6.29
2023-02-24T22:49:38.428Z,6.29
2023-02-24T22:52:04.953Z,6.32
2023-02-24T22:54:31.601Z,6.19
2023-02-24T22:56:58.188Z,6.22
2023-02-24T22:59:24.742Z,6.22
2023-02-24T23:01:51.247Z,6.16
2023-02-24T23:04:18.207Z,6.19
2023-02-24T23:06:44.919Z,6.19
2023-02-24T23:09:11.869Z,6.24
2023-02-24T23:11:41.351Z,6.16
2023-02-24T23:14:10.083Z,6.27
2023-02-24T23:16:37.320Z,6.31
2023-02-24T23:19:06.853Z,6.24
2023-02-24T23:21:37.890Z,6.28
2023-02-24T23:24:05.219Z,6.28
2023-02-24T23:26:43.007Z,6.30
2023-02-24T23:29:10.990Z,6.29
2023-02-24T23:31:37.979Z,6.35
2023-02-24T23:34:06.972Z,6.36
2023-02-24T23:36:35.888Z,6.36
2023-02-24T23:39:03.281Z,6.34
2023-02-24T23:41:29.900Z,6.38
2023-02-24T23:43:56.407Z,6.33
2023-02-24T23:46:23.292Z,6.26
2023-02-24T23:48:54.242Z,6.24
2023-02-24T23:51:20.962Z,6.26
2023-02-24T23:53:48.493Z,6.15
2023-02-24T23:56:19.720Z,6.25
2023-02-24T23:58:50.519Z,6.23
